Time;durP1;ratioP1;P1;durP2;ratioP2;P2;SDS_P1;SDS_P2;PMS_P1;PMS_P2;Temp;Humidity;BMP_temperature;BMP_pressure;BME280_temperature;BME280_humidity;BME280_pressure;Samples;Min_cycle;Max_cycle;Signal;HPM_P1;HPM_P2
2022/08/05 00:02:00;;;;;;;10.50;4.53;;;20.70;70.80;;;;;;5058925;28;20036;-73
2022/08/05 00:04:26;;;;;;;11.57;4.53;;;20.70;71.00;;;;;;5063653;28;20068;-72
2022/08/05 00:06:51;;;;;;;9.70;4.22;;;20.60;71.10;;;;;;5063842;28;20040;-72
2022/08/05 00:09:17;;;;;;;11.65;4.75;;;20.80;71.20;;;;;;5061778;28;20119;-72
2022/08/05 00:11:43;;;;;;;10.32;4.65;;;20.70;71.30;;;;;;5062457;28;20383;-74
2022/08/05 00:14:08;;;;;;;9.48;3.97;;;20.70;71.50;;;;;;5062455;28;20123;-74
2022/08/05 00:16:34;;;;;;;10.60;4.88;;;20.90;71.60;;;;;;5058490;28;20032;-73
2022/08/05 00:19:00;;;;;;;11.15;3.65;;;21.00;70.80;;;;;;5062184;28;20545;-72
2022/08/05 00:21:25;;;;;;;11.82;4.25;;;21.10;70.80;;;;;;5056778;28;20103;-72
2022/08/05 00:23:51;;;;;;;8.05;3.83;;;21.10;70.20;;;;;;5062453;28;20041;-72
2022/08/05 00:26:18;;;;;;;9.48;4.53;;;21.00;70.60;;;;;;5064645;28;20044;-72
2022/08/05 00:28:44;;;;;;;11.32;4.30;;;21.10;70.10;;;;;;5060031;28;20048;-74
2022/08/05 00:31:09;;;;;;;10.75;4.60;;;21.00;70.30;;;;;;5062465;28;20427;-72
2022/08/05 00:33:35;;;;;;;12.82;4.68;;;21.10;70.10;;;;;;5061150;28;20098;-71
2022/08/05 00:36:01;;;;;;;9.35;4.15;;;21.10;70.20;;;;;;5060020;28;20359;-74
2022/08/05 00:38:27;;;;;;;12.75;5.03;;;21.10;70.70;;;;;;5060556;28;20037;-71
2022/08/05 00:40:57;;;;;;;10.18;4.93;;;21.00;70.70;;;;;;5061472;28;20548;-73
2022/08/05 00:43:22;;;;;;;14.23;5.28;;;21.00;70.30;;;;;;5059171;28;20060;-72
2022/08/05 00:45:48;;;;;;;12.15;5.40;;;20.90;70.50;;;;;;5060872;28;20043;-71
2022/08/05 00:48:17;;;;;;;12.00;5.00;;;21.00;70.70;;;;;;5055259;28;20037;-72
2022/08/05 00:50:46;;;;;;;12.57;5.15;;;20.90;70.70;;;;;;5066533;28;20040;-72
2022/08/05 00:53:15;;;;;;;10.80;5.80;;;20.80;71.10;;;;;;5059648;28;20487;-75
2022/08/05 00:55:41;;;;;;;11.10;5.53;;;20.70;71.30;;;;;;5062104;28;20048;-72
2022/08/05 00:58:07;;;;;;;13.57;6.38;;;20.70;71.60;;;;;;5056580;28;20048;-72
2022/08/05 01:00:32;;;;;;;13.13;6.22;;;20.60;71.80;;;;;;5062635;28;20498;-71
2022/08/05 01:02:58;;;;;;;12.55;5.80;;;20.60;72.00;;;;;;5063485;28;20682;-72
2022/08/05 01:05:24;;;;;;;13.68;6.72;;;20.60;72.70;;;;;;5072113;28;20523;-72
2022/08/05 01:07:50;;;;;;;12.32;6.10;;;20.40;72.80;;;;;;5062717;28;20060;-73
2022/08/05 01:10:19;;;;;;;13.18;6.03;;;20.30;73.40;;;;;;5062240;28;20135;-71
2022/08/05 01:12:51;;;;;;;14.85;7.50;;;20.20;73.80;;;;;;5065823;28;20480;-73
2022/08/05 01:15:24;;;;;;;13.98;7.10;;;20.30;73.20;;;;;;5067802;28;20044;-72
2022/08/05 01:17:55;;;;;;;15.18;7.72;;;20.30;73.30;;;;;;5064383;28;20037;-73
2022/08/05 01:20:37;;;;;;;13.52;7.35;;;20.30;73.40;;;;;;5067484;28;20041;-72
2022/08/05 01:23:10;;;;;;;12.98;6.57;;;20.10;74.00;;;;;;5065333;28;20043;-73
2022/08/05 01:25:54;;;;;;;17.23;7.50;;;20.20;74.10;;;;;;5063933;28;20515;-72
2022/08/05 01:28:49;;;;;;;12.43;7.28;;;20.20;74.10;;;;;;5065427;28;20900;-72
2022/08/05 01:31:27;;;;;;;16.35;8.10;;;20.10;73.90;;;;;;5061370;28;20040;-72
2022/08/05 01:34:06;;;;;;;16.33;8.40;;;20.10;74.20;;;;;;5058432;28;20446;-72
2022/08/05 01:36:41;;;;;;;11.20;6.93;;;20.10;74.30;;;;;;5064880;28;20048;-73
2022/08/05 01:39:08;;;;;;;18.02;9.73;;;20.10;74.40;;;;;;5059377;28;20115;-73
2022/08/05 01:41:35;;;;;;;16.35;8.25;;;20.10;73.90;;;;;;5062110;28;20036;-72
2022/08/05 01:44:02;;;;;;;15.15;8.95;;;20.10;74.40;;;;;;5063452;28;20085;-73
2022/08/05 01:46:29;;;;;;;15.90;8.68;;;20.10;74.00;;;;;;5065244;28;20471;-73
2022/08/05 01:48:57;;;;;;;15.57;8.55;;;20.00;74.70;;;;;;5067938;28;20047;-72
2022/08/05 01:51:24;;;;;;;13.00;7.78;;;20.00;74.70;;;;;;5068539;28;20051;-72
2022/08/05 01:53:52;;;;;;;13.07;7.53;;;20.10;74.50;;;;;;5060943;28;20037;-71
2022/08/05 01:56:20;;;;;;;13.00;6.35;;;20.20;74.20;;;;;;5063956;28;20068;-71
2022/08/05 01:58:49;;;;;;;15.25;8.52;;;20.30;74.30;;;;;;5065214;28;20688;-71
2022/08/05 02:01:18;;;;;;;12.38;7.15;;;20.40;73.60;;;;;;5065754;28;20041;-73
2022/08/05 02:03:46;;;;;;;11.40;7.43;;;20.50;73.40;;;;;;5064188;28;20495;-72
2022/08/05 02:06:13;;;;;;;11.75;8.02;;;20.50;73.20;;;;;;5063981;28;20033;-72
2022/08/05 02:08:39;;;;;;;15.43;8.25;;;20.60;73.00;;;;;;5062995;28;20392;-73
2022/08/05 02:11:09;;;;;;;14.20;7.20;;;20.60;73.10;;;;;;5063040;28;20094;-72
2022/08/05 02:13:52;;;;;;;12.38;5.60;;;20.60;73.30;;;;;;5060742;28;20119;-72
2022/08/05 02:16:22;;;;;;;9.73;6.30;;;20.60;73.20;;;;;;5053354;28;20420;-72
2022/08/05 02:19:01;;;;;;;11.30;6.07;;;20.70;72.70;;;;;;5062580;28;20480;-74
2022/08/05 02:21:34;;;;;;;13.63;6.75;;;20.80;72.40;;;;;;5059974;28;20572;-72
2022/08/05 02:24:05;;;;;;;11.57;6.07;;;20.80;72.20;;;;;;5064730;28;20032;-72
2022/08/05 02:26:50;;;;;;;15.85;8.75;;;20.70;72.60;;;;;;5062819;28;20514;-72
2022/08/05 02:29:20;;;;;;;11.73;7.25;;;20.80;71.10;;;;;;5060133;28;20032;-72
2022/08/05 02:31:47;;;;;;;12.88;7.80;;;20.80;71.90;;;;;;5063130;28;20443;-72
2022/08/05 02:34:15;;;;;;;11.02;6.63;;;20.80;72.00;;;;;;5063995;28;20043;-72
2022/08/05 02:36:49;;;;;;;12.45;7.65;;;20.80;72.10;;;;;;5060130;28;20048;-71
2022/08/05 02:39:17;;;;;;;15.27;8.45;;;20.70;72.10;;;;;;5060375;28;20064;-71
2022/08/05 02:41:46;;;;;;;12.68;7.85;;;20.70;72.20;;;;;;5064671;28;20048;-72
2022/08/05 02:44:13;;;;;;;16.42;8.77;;;20.60;72.30;;;;;;5064270;28;20471;-72
2022/08/05 02:46:41;;;;;;;16.50;7.60;;;20.40;72.30;;;;;;5064105;28;20043;-72
2022/08/05 02:49:07;;;;;;;14.02;7.38;;;20.50;72.90;;;;;;5063254;28;20033;-72
2022/08/05 02:51:36;;;;;;;16.33;8.88;;;20.30;72.90;;;;;;5067046;28;20203;-73
2022/08/05 02:54:03;;;;;;;15.65;7.53;;;20.20;72.40;;;;;;5069896;28;20025;-72
2022/08/05 02:56:29;;;;;;;11.38;7.55;;;20.10;73.10;;;;;;5063385;28;20044;-71
2022/08/05 02:58:56;;;;;;;11.43;6.00;;;20.20;73.20;;;;;;5058340;28;20516;-73
2022/08/05 03:01:26;;;;;;;12.23;7.38;;;20.10;73.90;;;;;;5067760;28;20040;-72
2022/08/05 03:03:58;;;;;;;11.93;7.10;;;20.10;73.70;;;;;;5064240;28;20058;-73
2022/08/05 03:06:26;;;;;;;12.80;7.43;;;20.10;73.50;;;;;;5059118;28;20056;-72
2022/08/05 03:08:52;;;;;;;12.30;6.75;;;20.00;73.80;;;;;;5062573;28;20458;-72
2022/08/05 03:11:23;;;;;;;10.93;6.85;;;19.90;74.10;;;;;;5063696;28;20109;-74
2022/08/05 03:13:50;;;;;;;15.48;7.15;;;19.90;74.50;;;;;;5057831;28;20123;-73
2022/08/05 03:16:16;;;;;;;13.57;6.60;;;20.00;73.70;;;;;;5066057;28;20151;-73
2022/08/05 03:18:42;;;;;;;15.38;7.47;;;20.00;73.70;;;;;;5064252;28;20116;-72
2022/08/05 03:21:09;;;;;;;15.02;6.22;;;19.90;73.90;;;;;;5062362;28;20072;-73
2022/08/05 03:23:37;;;;;;;12.10;6.45;;;19.90;74.40;;;;;;5067255;28;20499;-72
2022/08/05 03:26:03;;;;;;;9.65;5.88;;;19.80;73.80;;;;;;5060797;28;20040;-72
2022/08/05 03:28:29;;;;;;;11.13;6.63;;;19.80;74.50;;;;;;5062657;28;20025;-73
2022/08/05 03:30:56;;;;;;;12.60;6.80;;;19.80;73.90;;;;;;5063644;28;20044;-72
2022/08/05 03:33:23;;;;;;;13.40;6.03;;;19.80;74.20;;;;;;5059789;28;20052;-72
2022/08/05 03:35:50;;;;;;;12.32;6.22;;;19.80;74.30;;;;;;5061803;28;20063;-72
2022/08/05 03:38:16;;;;;;;12.25;7.30;;;19.60;74.90;;;;;;5059668;28;20094;-72
2022/08/05 03:40:43;;;;;;;14.57;8.52;;;19.60;74.60;;;;;;5062091;28;20044;-73
2022/08/05 03:43:09;;;;;;;16.80;9.05;;;19.50;74.70;;;;;;5065194;28;20088;-71
2022/08/05 03:45:34;;;;;;;11.48;8.35;;;19.40;75.00;;;;;;5063733;28;20430;-73
2022/08/05 03:48:00;;;;;;;11.63;6.40;;;19.40;75.20;;;;;;5061012;28;20051;-72
2022/08/05 03:50:54;;;;;;;11.77;7.30;;;19.30;75.90;;;;;;5059813;28;20043;-71
2022/08/05 03:53:29;;;;;;;10.43;7.90;;;19.30;76.00;;;;;;5071975;28;20082;-71
2022/08/05 03:56:09;;;;;;;14.27;8.38;;;19.20;76.00;;;;;;5066022;28;20045;-71
2022/08/05 03:58:36;;;;;;;13.70;7.80;;;19.20;75.90;;;;;;5061769;28;20438;-71
2022/08/05 04:01:05;;;;;;;13.10;8.57;;;19.20;75.90;;;;;;5060490;28;20039;-72
2022/08/05 04:03:34;;;;;;;15.75;9.30;;;19.10;76.00;;;;;;5062628;28;20028;-71
2022/08/05 04:06:02;;;;;;;13.07;8.85;;;19.00;76.10;;;;;;5063173;28;20037;-73
2022/08/05 04:08:29;;;;;;;13.55;8.35;;;19.00;76.40;;;;;;5061824;28;20029;-73
2022/08/05 04:10:56;;;;;;;14.45;8.52;;;18.90;76.60;;;;;;5068987;28;20059;-72
2022/08/05 04:13:22;;;;;;;14.63;9.02;;;19.00;76.80;;;;;;5059075;28;20032;-71
2022/08/05 04:15:50;;;;;;;14.77;9.10;;;19.00;76.70;;;;;;5067420;28;20056;-73
2022/08/05 04:18:15;;;;;;;11.52;7.68;;;18.90;76.40;;;;;;5061713;28;20032;-73
2022/08/05 04:20:41;;;;;;;11.60;7.80;;;18.90;77.00;;;;;;5063798;28;20048;-72
2022/08/05 04:23:09;;;;;;;12.48;7.80;;;18.90;76.80;;;;;;5060720;28;20059;-74
2022/08/05 04:25:34;;;;;;;11.35;7.22;;;18.90;76.80;;;;;;5061436;28;20028;-72
2022/08/05 04:28:00;;;;;;;12.90;8.75;;;19.00;77.40;;;;;;5061474;28;20445;-73
2022/08/05 04:30:26;;;;;;;14.80;8.40;;;19.00;75.70;;;;;;5061083;28;20491;-73
2022/08/05 04:32:52;;;;;;;12.77;7.57;;;18.90;76.50;;;;;;5062149;28;20033;-72
2022/08/05 04:35:17;;;;;;;15.38;8.90;;;18.90;76.80;;;;;;5055312;28;20048;-71
2022/08/05 04:37:43;;;;;;;14.27;7.75;;;18.80;76.80;;;;;;5058670;28;20401;-72
2022/08/05 04:40:09;;;;;;;13.27;8.20;;;18.90;77.10;;;;;;5062763;28;20036;-71
2022/08/05 04:42:35;;;;;;;10.35;7.45;;;18.90;76.20;;;;;;5061966;28;20036;-72
2022/08/05 04:45:01;;;;;;;11.10;6.80;;;18.90;76.10;;;;;;5061335;28;20356;-72
2022/08/05 04:47:27;;;;;;;12.10;6.85;;;18.90;76.60;;;;;;5062049;28;20032;-71
2022/08/05 04:49:52;;;;;;;12.40;8.18;;;18.90;76.50;;;;;;5060661;28;20578;-72
2022/08/05 04:52:18;;;;;;;14.68;8.23;;;19.00;75.80;;;;;;5061105;28;20035;-72
2022/08/05 04:54:44;;;;;;;10.48;6.82;;;19.00;75.60;;;;;;5060004;28;20413;-72
2022/08/05 04:57:09;;;;;;;9.93;6.65;;;19.00;75.70;;;;;;5065083;28;20480;-73
2022/08/05 04:59:35;;;;;;;15.52;7.65;;;18.90;75.70;;;;;;5061294;28;20051;-71
2022/08/05 05:02:01;;;;;;;11.20;6.93;;;19.00;75.60;;;;;;5061950;28;20434;-73
2022/08/05 05:04:26;;;;;;;12.40;7.15;;;19.10;74.80;;;;;;5053706;28;20087;-72
2022/08/05 05:06:52;;;;;;;8.52;5.13;;;19.00;74.90;;;;;;5060848;28;20495;-73
2022/08/05 05:09:18;;;;;;;8.75;5.07;;;19.10;76.30;;;;;;5059522;28;20094;-73
2022/08/05 05:11:44;;;;;;;14.75;7.00;;;19.10;75.60;;;;;;5061686;28;20045;-73
2022/08/05 05:14:10;;;;;;;8.73;5.63;;;19.10;74.00;;;;;;5062316;28;20551;-73
2022/08/05 05:16:35;;;;;;;11.95;6.63;;;19.20;75.30;;;;;;5060008;28;20041;-72
2022/08/05 05:19:01;;;;;;;13.60;7.15;;;19.10;74.70;;;;;;5061688;28;20074;-74
2022/08/05 05:21:26;;;;;;;11.82;6.70;;;19.00;74.80;;;;;;5062171;28;20124;-73
2022/08/05 05:23:52;;;;;;;13.98;6.25;;;19.00;75.10;;;;;;5054484;28;20039;-72
2022/08/05 05:26:18;;;;;;;11.65;6.97;;;19.00;75.30;;;;;;5060968;28;20154;-71
2022/08/05 05:28:43;;;;;;;10.50;6.40;;;19.10;74.70;;;;;;5061938;28;20501;-72
2022/08/05 05:31:09;;;;;;;12.80;5.95;;;19.80;73.10;;;;;;5060804;28;20102;-72
2022/08/05 05:33:34;;;;;;;14.35;6.20;;;20.10;71.10;;;;;;5061517;28;20455;-73
2022/08/05 05:36:00;;;;;;;9.27;5.93;;;20.10;70.80;;;;;;5057767;28;20470;-73
2022/08/05 05:38:26;;;;;;;9.65;5.68;;;20.10;71.60;;;;;;5062256;28;20633;-72
2022/08/05 05:40:51;;;;;;;10.77;5.97;;;20.10;72.30;;;;;;5058310;28;20044;-72
2022/08/05 05:43:18;;;;;;;15.35;6.43;;;19.90;72.20;;;;;;5060974;28;20399;-72
2022/08/05 05:45:44;;;;;;;9.68;5.85;;;19.70;73.10;;;;;;5059691;28;20055;-74
2022/08/05 05:48:09;;;;;;;8.38;5.05;;;19.50;73.80;;;;;;5061032;28;20029;-75
2022/08/05 05:50:35;;;;;;;9.95;5.43;;;19.60;73.80;;;;;;5064007;28;20132;-74
2022/08/05 05:53:01;;;;;;;12.00;6.85;;;19.60;73.90;;;;;;5063776;28;20115;-75
2022/08/05 05:55:26;;;;;;;10.57;6.80;;;19.70;73.50;;;;;;5066151;28;20041;-74
2022/08/05 05:57:52;;;;;;;11.32;6.15;;;19.90;73.20;;;;;;5062955;28;20032;-74
2022/08/05 06:00:19;;;;;;;9.15;5.20;;;20.50;70.90;;;;;;5063830;28;20543;-75
2022/08/05 06:02:46;;;;;;;9.73;6.07;;;21.00;69.60;;;;;;5063193;28;20414;-74
2022/08/05 06:05:14;;;;;;;11.43;6.72;;;21.00;69.60;;;;;;5065691;28;20043;-74
2022/08/05 06:07:40;;;;;;;9.88;6.97;;;20.70;69.40;;;;;;5063466;28;20044;-73
2022/08/05 06:10:07;;;;;;;9.90;5.90;;;20.60;70.30;;;;;;5066452;28;20036;-76
2022/08/05 06:12:34;;;;;;;11.30;7.57;;;20.60;71.00;;;;;;5067977;28;20097;-75
2022/08/05 06:15:01;;;;;;;13.30;7.32;;;20.30;71.60;;;;;;5066186;28;20392;-73
2022/08/05 06:17:27;;;;;;;11.80;6.10;;;20.30;71.70;;;;;;5067199;28;20063;-73
2022/08/05 06:19:52;;;;;;;10.40;6.28;;;20.30;72.60;;;;;;5062687;28;20115;-74
2022/08/05 06:22:29;;;;;;;13.18;5.60;;;20.30;72.10;;;;;;5068756;28;20036;-75
2022/08/05 06:24:56;;;;;;;11.88;6.90;;;20.50;72.20;;;;;;5065399;28;20043;-74
2022/08/05 06:27:21;;;;;;;11.63;6.65;;;20.30;71.60;;;;;;5060296;28;20098;-73
2022/08/05 06:29:47;;;;;;;13.00;7.22;;;20.40;71.90;;;;;;5064531;28;20040;-73
2022/08/05 06:32:13;;;;;;;11.25;6.55;;;20.40;72.20;;;;;;5066424;28;20032;-74
2022/08/05 06:34:39;;;;;;;13.43;7.18;;;20.40;72.60;;;;;;5063344;28;20043;-73
2022/08/05 06:37:05;;;;;;;10.38;6.68;;;20.40;72.20;;;;;;5065547;28;20119;-72
2022/08/05 06:39:31;;;;;;;10.63;6.45;;;20.40;72.30;;;;;;5061584;28;20504;-73
2022/08/05 06:42:00;;;;;;;12.90;6.38;;;20.40;72.80;;;;;;5066119;28;20119;-73
2022/08/05 06:44:26;;;;;;;9.13;5.13;;;20.60;71.70;;;;;;5066931;28;20412;-73
2022/08/05 06:46:52;;;;;;;12.32;5.40;;;20.70;71.30;;;;;;5070731;28;20032;-72
2022/08/05 06:49:17;;;;;;;9.85;6.15;;;20.80;70.90;;;;;;5068494;28;20382;-71
2022/08/05 06:51:43;;;;;;;9.55;5.95;;;20.70;70.80;;;;;;5069807;28;20043;-72
2022/08/05 06:54:09;;;;;;;9.90;5.88;;;20.80;70.30;;;;;;5073221;28;20609;-72
2022/08/05 06:56:34;;;;;;;11.75;5.90;;;20.80;70.30;;;;;;5066396;28;20048;-72
2022/08/05 06:59:00;;;;;;;8.98;5.43;;;20.80;70.70;;;;;;5069212;28;20040;-72
2022/08/05 07:01:26;;;;;;;11.15;5.47;;;21.00;69.80;;;;;;5069043;28;20052;-73
2022/08/05 07:03:51;;;;;;;9.20;4.85;;;21.10;69.60;;;;;;5068277;28;20472;-72
2022/08/05 07:06:17;;;;;;;11.15;5.47;;;21.20;68.90;;;;;;5072252;28;20127;-72
2022/08/05 07:08:43;;;;;;;10.27;5.00;;;21.40;68.60;;;;;;5057342;28;20420;-73
2022/08/05 07:11:09;;;;;;;9.23;5.18;;;21.60;68.60;;;;;;5067947;28;20040;-73
2022/08/05 07:19:03;;;;;;;8.23;4.43;;;21.80;66.60;;;;;;5060514;28;20059;-72
2022/08/05 07:21:29;;;;;;;11.68;4.65;;;21.80;65.90;;;;;;5057106;28;20464;-71
2022/08/05 07:23:56;;;;;;;7.95;4.28;;;21.70;66.10;;;;;;5065177;28;20060;-73
2022/08/05 07:26:22;;;;;;;9.70;4.07;;;21.60;65.40;;;;;;5065729;28;20036;-73
2022/08/05 07:28:49;;;;;;;9.52;4.00;;;21.70;65.60;;;;;;5063917;28;20525;-72
2022/08/05 07:31:15;;;;;;;7.78;3.63;;;21.80;64.70;;;;;;5059887;28;20028;-72
2022/08/05 07:33:41;;;;;;;6.35;3.25;;;21.70;65.00;;;;;;5062171;28;20044;-72
2022/08/05 07:36:07;;;;;;;8.95;3.80;;;21.80;65.30;;;;;;5055910;28;20458;-72
2022/08/05 07:38:34;;;;;;;7.65;3.80;;;21.80;66.00;;;;;;5058124;28;20878;-73
2022/08/05 07:41:02;;;;;;;7.15;3.10;;;22.00;65.20;;;;;;5056782;28;20043;-73
2022/08/05 07:43:27;;;;;;;8.57;3.30;;;22.40;64.00;;;;;;5057156;28;20040;-75
2022/08/05 07:45:53;;;;;;;8.90;2.47;;;22.20;63.20;;;;;;5061774;28;20040;-74
2022/08/05 07:48:19;;;;;;;6.82;2.67;;;22.10;61.10;;;;;;5062118;28;20032;-73
2022/08/05 07:50:44;;;;;;;7.38;2.80;;;22.10;62.00;;;;;;5059433;28;20040;-75
2022/08/05 07:53:10;;;;;;;8.43;3.00;;;22.10;62.00;;;;;;5058290;28;20456;-74
2022/08/05 07:55:36;;;;;;;9.32;3.30;;;22.10;62.60;;;;;;5058865;28;20437;-73
2022/08/05 07:58:02;;;;;;;8.02;3.08;;;21.80;63.00;;;;;;5057734;28;20049;-73
2022/08/05 08:00:27;;;;;;;7.43;2.78;;;21.70;62.90;;;;;;5056090;28;20039;-73
2022/08/05 08:02:53;;;;;;;6.38;2.67;;;21.60;63.20;;;;;;5061979;28;20052;-72
2022/08/05 08:05:19;;;;;;;7.15;3.08;;;22.10;63.40;;;;;;5065539;28;20029;-73
2022/08/05 08:07:45;;;;;;;7.15;3.08;;;22.60;61.00;;;;;;5060165;28;20111;-72
2022/08/05 08:10:11;;;;;;;7.63;2.30;;;22.70;60.00;;;;;;5059831;28;20044;-74
2022/08/05 08:12:36;;;;;;;6.28;2.55;;;23.00;59.00;;;;;;5060820;28;20041;-74
2022/08/05 08:15:03;;;;;;;6.60;2.30;;;23.10;58.30;;;;;;5055282;28;20422;-74
2022/08/05 08:17:30;;;;;;;4.78;2.17;;;23.30;57.70;;;;;;5059939;28;20455;-73
2022/08/05 08:19:56;;;;;;;6.10;2.10;;;23.10;57.20;;;;;;5059919;28;20044;-73
2022/08/05 08:22:25;;;;;;;5.35;1.85;;;23.30;56.50;;;;;;5062638;28;20044;-73
2022/08/05 08:24:51;;;;;;;7.18;2.13;;;23.40;55.70;;;;;;5060872;28;20090;-72
2022/08/05 08:27:17;;;;;;;5.55;1.80;;;23.60;54.10;;;;;;5060237;28;20377;-71
2022/08/05 08:29:43;;;;;;;7.18;1.90;;;23.40;54.60;;;;;;5063062;28;20181;-71
2022/08/05 08:32:09;;;;;;;6.00;1.73;;;23.30;54.80;;;;;;5061567;28;20547;-73
2022/08/05 08:34:35;;;;;;;5.40;2.00;;;23.50;53.30;;;;;;5065940;28;20040;-71
2022/08/05 08:37:01;;;;;;;7.05;2.00;;;23.60;53.10;;;;;;5062764;28;20170;-72
2022/08/05 08:39:26;;;;;;;7.97;1.90;;;23.30;54.50;;;;;;5058951;28;20119;-72
2022/08/05 08:41:55;;;;;;;7.65;2.20;;;23.50;54.40;;;;;;5065551;28;20468;-73
2022/08/05 08:44:24;;;;;;;4.82;1.55;;;24.00;53.00;;;;;;5061653;28;20428;-72
2022/08/05 08:46:50;;;;;;;7.45;2.35;;;23.80;50.60;;;;;;5057163;28;20077;-72
2022/08/05 08:49:19;;;;;;;5.38;1.35;;;23.80;50.40;;;;;;5065999;28;20047;-73
2022/08/05 08:51:57;;;;;;;3.30;1.30;;;23.90;50.40;;;;;;5061413;28;20033;-73
2022/08/05 08:54:24;;;;;;;6.28;1.70;;;24.00;50.40;;;;;;5068395;28;20044;-72
2022/08/05 08:56:50;;;;;;;3.50;1.08;;;24.60;50.20;;;;;;5062197;28;20068;-71
2022/08/05 08:59:21;;;;;;;3.58;1.30;;;25.10;47.60;;;;;;5058545;28;20044;-73
2022/08/05 09:01:47;;;;;;;4.35;1.30;;;24.90;47.00;;;;;;5067554;28;20040;-73
2022/08/05 09:04:13;;;;;;;4.15;1.38;;;24.40;48.90;;;;;;5060946;28;20040;-73
2022/08/05 09:06:39;;;;;;;4.35;1.60;;;24.10;49.50;;;;;;5061591;28;20141;-73
2022/08/05 09:09:05;;;;;;;4.65;1.20;;;23.70;51.10;;;;;;5063745;28;20478;-71
2022/08/05 09:11:36;;;;;;;4.40;1.30;;;23.70;51.40;;;;;;5062970;28;20444;-73
2022/08/05 09:14:02;;;;;;;4.13;1.40;;;23.80;51.80;;;;;;5060422;28;20185;-73
2022/08/05 09:16:28;;;;;;;4.78;1.63;;;24.00;50.70;;;;;;5060872;28;20044;-73
2022/08/05 09:18:53;;;;;;;3.38;1.30;;;24.20;50.50;;;;;;5063929;28;20097;-72
2022/08/05 09:21:21;;;;;;;6.25;1.60;;;24.70;49.50;;;;;;5058069;28;20039;-71
2022/08/05 09:24:02;;;;;;;4.30;1.35;;;24.20;49.50;;;;;;5062339;28;20379;-72
2022/08/05 09:26:27;;;;;;;4.22;1.20;;;23.60;50.70;;;;;;5062652;28;20059;-73
2022/08/05 09:28:57;;;;;;;3.90;1.33;;;23.70;51.20;;;;;;5064782;28;20040;-72
2022/08/05 09:31:23;;;;;;;4.93;1.50;;;24.20;49.00;;;;;;5065691;28;20060;-71
2022/08/05 09:33:55;;;;;;;4.65;1.38;;;24.40;49.30;;;;;;5066840;28;20044;-71
2022/08/05 09:36:21;;;;;;;8.32;1.45;;;23.90;52.20;;;;;;5059765;28;20462;-73
2022/08/05 09:39:08;;;;;;;4.47;1.33;;;23.70;53.60;;;;;;5070942;28;20656;-74
2022/08/05 09:41:34;;;;;;;3.75;1.10;;;23.00;55.40;;;;;;5060708;28;20813;-72
2022/08/05 09:44:00;;;;;;;5.55;1.40;;;22.30;57.30;;;;;;5060545;28;20120;-73
2022/08/05 09:46:27;;;;;;;5.32;1.40;;;22.00;57.90;;;;;;5063978;28;20373;-73
2022/08/05 09:48:54;;;;;;;5.28;1.27;;;21.80;58.30;;;;;;5082063;28;20035;-73
2022/08/05 09:51:52;;;;;;;5.88;1.50;;;22.00;58.30;;;;;;5067289;28;20453;-72
2022/08/05 09:54:30;;;;;;;9.68;1.60;;;22.60;56.70;;;;;;5039675;28;20036;-73
2022/08/05 09:56:56;;;;;;;5.10;1.50;;;23.00;54.60;;;;;;5068068;28;20044;-73
2022/08/05 09:59:23;;;;;;;5.82;1.80;;;23.30;53.90;;;;;;5064324;28;20374;-74
2022/08/05 10:01:51;;;;;;;4.72;1.38;;;23.90;53.00;;;;;;5064870;28;20033;-71
2022/08/05 10:04:17;;;;;;;6.88;1.70;;;24.10;51.40;;;;;;5063494;28;20032;-73
2022/08/05 10:06:53;;;;;;;4.78;1.33;;;24.50;50.60;;;;;;5064733;28;20040;-73
2022/08/05 10:09:20;;;;;;;6.07;1.48;;;24.30;51.60;;;;;;5060486;28;20037;-73
2022/08/05 10:11:47;;;;;;;5.15;1.30;;;24.50;51.40;;;;;;5061848;28;20109;-73
2022/08/05 10:14:28;;;;;;;3.28;1.00;;;23.80;52.90;;;;;;5063581;28;20037;-73
2022/08/05 10:16:55;;;;;;;4.85;1.20;;;24.00;52.40;;;;;;5064358;28;20044;-73
2022/08/05 10:19:22;;;;;;;5.47;1.30;;;23.90;52.50;;;;;;5061956;28;20094;-72
2022/08/05 10:21:48;;;;;;;8.40;1.58;;;24.00;52.20;;;;;;5057371;28;20037;-72
2022/08/05 10:24:17;;;;;;;6.22;1.25;;;24.60;50.40;;;;;;5064640;28;20379;-73
2022/08/05 10:26:44;;;;;;;4.15;1.50;;;25.10;49.30;;;;;;5062223;28;20086;-72
2022/08/05 10:29:10;;;;;;;3.53;1.30;;;25.20;47.90;;;;;;5066430;28;20032;-72
2022/08/05 10:31:38;;;;;;;4.78;1.50;;;25.00;48.70;;;;;;5061240;28;20056;-72
2022/08/05 10:34:06;;;;;;;4.55;1.23;;;24.50;49.70;;;;;;5061765;28;20021;-72
2022/08/05 10:36:33;;;;;;;5.57;1.20;;;23.90;51.00;;;;;;5062966;28;20044;-72
2022/08/05 10:39:05;;;;;;;2.25;1.10;;;23.60;52.00;;;;;;5064493;28;20029;-72
2022/08/05 10:41:35;;;;;;;4.25;1.33;;;23.50;52.00;;;;;;5067975;28;20097;-72
2022/08/05 10:44:05;;;;;;;6.68;1.73;;;23.50;51.50;;;;;;5066845;28;20056;-72
2022/08/05 10:46:49;;;;;;;4.97;1.30;;;24.00;51.50;;;;;;5064962;28;20413;-72
2022/08/05 10:49:16;;;;;;;5.05;1.52;;;24.70;49.90;;;;;;5059316;28;20025;-72
2022/08/05 10:51:56;;;;;;;7.32;1.55;;;24.80;47.40;;;;;;5062719;28;20040;-72
2022/08/05 10:54:24;;;;;;;4.53;1.38;;;24.50;48.50;;;;;;5061470;28;20032;-72
2022/08/05 10:56:57;;;;;;;3.72;1.13;;;24.10;48.60;;;;;;5062987;28;20036;-72
2022/08/05 10:59:28;;;;;;;3.83;0.90;;;23.90;50.10;;;;;;5065224;28;20111;-72
2022/08/05 11:02:13;;;;;;;2.47;1.00;;;23.40;51.50;;;;;;5063395;28;20059;-72
2022/08/05 11:04:44;;;;;;;5.28;1.48;;;22.90;52.40;;;;;;5065818;28;20075;-72
2022/08/05 11:07:14;;;;;;;4.25;1.63;;;22.60;52.60;;;;;;5061629;28;20460;-72
2022/08/05 11:09:46;;;;;;;4.18;1.15;;;22.70;53.00;;;;;;5061196;28;20051;-72
2022/08/05 11:12:35;;;;;;;4.55;1.20;;;22.90;51.70;;;;;;5062526;28;20060;-73
2022/08/05 11:15:08;;;;;;;6.18;1.20;;;23.40;50.80;;;;;;5070743;28;20052;-73
2022/08/05 11:17:37;;;;;;;4.50;1.30;;;24.00;50.40;;;;;;5064605;28;20050;-73
2022/08/05 11:20:27;;;;;;;3.85;1.15;;;24.50;49.10;;;;;;5063018;28;20025;-73
2022/08/05 11:22:53;;;;;;;5.47;1.00;;;24.40;48.10;;;;;;5064032;28;20043;-72
2022/08/05 11:25:29;;;;;;;2.63;1.13;;;24.30;47.80;;;;;;5066861;28;20032;-72
2022/08/05 11:28:08;;;;;;;2.40;1.10;;;24.10;48.00;;;;;;5062366;28;20032;-72
2022/08/05 11:33:28;;;;;;;4.10;1.30;;;23.60;49.30;;;;;;5060873;28;20123;-71
2022/08/05 11:35:56;;;;;;;2.22;1.08;;;23.50;49.50;;;;;;5062697;28;20056;-73
2022/08/05 11:38:40;;;;;;;7.38;1.10;;;23.60;48.10;;;;;;5067476;28;20094;-73
2022/08/05 11:41:16;;;;;;;4.78;1.40;;;23.50;48.60;;;;;;5062999;28;20578;-71
2022/08/05 11:43:44;;;;;;;3.08;1.13;;;23.40;48.40;;;;;;5061814;28;20515;-72
2022/08/05 11:46:09;;;;;;;3.55;1.02;;;23.50;48.50;;;;;;5063028;28;20051;-73
2022/08/05 11:48:40;;;;;;;4.70;1.30;;;23.80;48.10;;;;;;5061797;28;20431;-73
2022/08/05 11:51:07;;;;;;;4.07;1.13;;;24.00;48.50;;;;;;5065009;28;20047;-72
2022/08/05 11:53:34;;;;;;;4.15;1.13;;;23.60;47.40;;;;;;5066654;28;21194;-73
2022/08/05 11:56:01;;;;;;;3.25;1.10;;;23.50;48.80;;;;;;5077634;28;20041;-72
2022/08/05 11:58:33;;;;;;;6.10;1.00;;;23.40;49.10;;;;;;5066924;28;20348;-74
2022/08/05 12:01:04;;;;;;;3.88;1.05;;;23.30;49.70;;;;;;5062439;28;20088;-72
2022/08/05 12:03:43;;;;;;;5.28;1.10;;;23.40;50.10;;;;;;5061026;28;20450;-74
2022/08/05 12:06:10;;;;;;;2.72;1.08;;;23.50;49.60;;;;;;5052635;28;20120;-72
2022/08/05 12:08:48;;;;;;;5.20;1.10;;;23.50;49.20;;;;;;5055736;28;20495;-72
2022/08/05 12:11:22;;;;;;;3.95;1.00;;;23.40;49.20;;;;;;5062683;28;20052;-71
2022/08/05 12:13:56;;;;;;;4.90;1.13;;;23.70;47.10;;;;;;5055159;28;20037;-73
2022/08/05 12:16:24;;;;;;;3.35;1.00;;;23.80;47.50;;;;;;5037740;28;20055;-74
2022/08/05 12:18:50;;;;;;;2.80;1.10;;;23.60;46.80;;;;;;5066182;28;20039;-73
2022/08/05 12:21:41;;;;;;;3.95;1.02;;;23.40;47.20;;;;;;5063534;28;20344;-72
2022/08/05 12:24:09;;;;;;;4.40;1.10;;;23.90;46.20;;;;;;5051827;28;20136;-73
2022/08/05 12:26:43;;;;;;;3.30;0.98;;;23.80;46.30;;;;;;5056763;28;20063;-73
2022/08/05 12:29:17;;;;;;;4.25;0.90;;;23.80;47.30;;;;;;5059824;28;20039;-74
2022/08/05 12:31:46;;;;;;;2.67;0.90;;;24.30;47.00;;;;;;5064812;28;20036;-75
2022/08/05 12:34:12;;;;;;;5.20;1.27;;;24.80;46.10;;;;;;5067358;28;20043;-72
2022/08/05 12:36:38;;;;;;;4.07;1.10;;;25.10;45.20;;;;;;5055860;28;20048;-74
2022/08/05 12:39:05;;;;;;;3.17;1.15;;;24.40;43.90;;;;;;5060670;28;20110;-73
2022/08/05 12:41:33;;;;;;;5.35;1.33;;;24.00;44.90;;;;;;5063151;28;20044;-74
2022/08/05 12:44:20;;;;;;;3.17;0.80;;;24.50;45.70;;;;;;5059053;28;20068;-76
2022/08/05 12:46:52;;;;;;;3.58;0.85;;;24.90;45.20;;;;;;5061829;28;20036;-74
2022/08/05 12:49:18;;;;;;;5.20;1.15;;;25.10;44.80;;;;;;5069456;28;20085;-75
2022/08/05 12:51:48;;;;;;;4.00;0.95;;;25.00;43.90;;;;;;5065722;28;20029;-74
2022/08/05 12:54:25;;;;;;;3.95;0.93;;;25.40;43.00;;;;;;5067230;28;20032;-73
2022/08/05 12:56:56;;;;;;;2.05;0.90;;;25.00;43.90;;;;;;5064025;28;20064;-74
2022/08/05 12:59:25;;;;;;;5.40;0.80;;;25.10;43.70;;;;;;5063401;28;20473;-75